Anchorage, AK (99501)

2:15 PM AKST on January 20, 2017 (GMT -0900)
Government Hill | | Change Station

Elev 94 ft 61.23 °N, 149.89 °W | Updated 8 minutes ago

Overcast
Overcast
5.9 °F
Feels Like 6 °F
N
0.0
Wind Variable Wind from NW
Gusts 0.0 mph

Today
High -- | Low -- °F
--% Chance of Precip.
Yesterday
High -- | Low -- °F
Precip. -- in
Pressure 29.51 in
Visibility 10.0 miles
Clouds Few 2000 ft
Scattered Clouds 5000 ft
Overcast 12000 ft
Windchill 6 °F
Dew Point 4 °F
Humidity 90%
Rainfall 0.00 in
Snow Depth Not available.
9:46 AM 4:35 PM
Last Quarter, 40% visible
METAR PAMR 202253Z 03005KT 10SM FEW020 SCT050 OVC120 M16/M18 A2950 RMK AO2 SLP993 T11561178 $
Pressure 29.51 in
Visibility 10.0 miles
Clouds Few 2000 ft
Scattered Clouds 5000 ft
Overcast 12000 ft
Windchill 6 °F
Dew Point 4 °F
Humidity 90%
Rainfall 0.00 in
Snow Depth Not available.
9:46 AM 4:35 PM
Last Quarter, 40% visible
METAR PAMR 202253Z 03005KT 10SM FEW020 SCT050 OVC120 M16/M18 A2950 RMK AO2 SLP993 T11561178 $

Get Your Daily Forecast Email!

Thanks for signing up!

Be on the lookout for a verification email in your inbox.

You'll start receiving the daily forecast at 8 AM.

×

10-Day Weather Forecast

Almanac

Astronomy

Jan. 20, 2017 Rise Set
Actual Time
Civil Twilight
Nautical Twilight
Astronomical Twilight
Moon
Length of Visible Light
Length of Day
Tomorrow will be .
, % of the Moon is Illuminated

Today's Extremes

State Highs State Lows

Community

WunderPhotos

Upload Photos

1,962,540 photos uploaded!

WunderBlog® & News

Nearby

Air Quality

  Air Quality AQ Index Pollutant
Not available.

Snow Depth

Station Depth Elevation

Earthquake Activity

City Distance Mag. Time & Date
Minimum magnitude displayed is 2.5.

Coastal Water Temperatures

Place Temperature

Stations

Nearby Weather Stations

Station Location Temp. Windchill Dew Point Humidity Wind Precip. Elev Updated Type
                   

Watches & Warnings

There are currently no watches in effect.